sensor_id;sensor_type;location;lat;lon;timestamp;pressure;altitude;pressure_sealevel;temperature;humidity
3434;BME280;1730;41.932;25.548;2023-05-11T00:01:43;99899.78;;;8.43;100.00
3434;BME280;1730;41.932;25.548;2023-05-11T00:04:08;100045.03;;;9.07;100.00
3434;BME280;1730;41.932;25.548;2023-05-11T00:06:34;99987.28;;;8.79;100.00
3434;BME280;1730;41.932;25.548;2023-05-11T00:09:00;99865.69;;;7.79;100.00
3434;BME280;1730;41.932;25.548;2023-05-11T00:11:25;100030.56;;;8.65;100.00
3434;BME280;1730;41.932;25.548;2023-05-11T00:13:51;100031.66;;;8.74;100.00
3434;BME280;1730;41.932;25.548;2023-05-11T00:16:16;100022.88;;;8.60;100.00
3434;BME280;1730;41.932;25.548;2023-05-11T00:18:42;100004.56;;;8.43;100.00
3434;BME280;1730;41.932;25.548;2023-05-11T00:21:08;100037.31;;;8.59;100.00
3434;BME280;1730;41.932;25.548;2023-05-11T00:23:33;100078.00;;;8.44;100.00
3434;BME280;1730;41.932;25.548;2023-05-11T00:25:59;99882.47;;;7.25;100.00
3434;BME280;1730;41.932;25.548;2023-05-11T00:28:24;100068.81;;;8.24;100.00
3434;BME280;1730;41.932;25.548;2023-05-11T00:30:54;100073.69;;;8.19;100.00
3434;BME280;1730;41.932;25.548;2023-05-11T00:33:20;100091.22;;;8.01;100.00
3434;BME280;1730;41.932;25.548;2023-05-11T00:35:45;99733.91;;;5.78;100.00
3434;BME280;1730;41.932;25.548;2023-05-11T00:38:13;99855.50;;;6.11;100.00
3434;BME280;1730;41.932;25.548;2023-05-11T00:40:39;99662.75;;;4.92;100.00
3434;BME280;1730;41.932;25.548;2023-05-11T00:43:05;100154.78;;;7.54;100.00
3434;BME280;1730;41.932;25.548;2023-05-11T00:45:31;99775.13;;;5.27;100.00
3434;BME280;1730;41.932;25.548;2023-05-11T00:47:57;99946.97;;;6.17;100.00
3434;BME280;1730;41.932;25.548;2023-05-11T00:50:23;99915.72;;;6.05;100.00
3434;BME280;1730;41.932;25.548;2023-05-11T00:52:49;99850.53;;;5.57;100.00
3434;BME280;1730;41.932;25.548;2023-05-11T00:55:18;99789.06;;;5.19;100.00
3434;BME280;1730;41.932;25.548;2023-05-11T00:57:44;100251.00;;;7.72;100.00
3434;BME280;1730;41.932;25.548;2023-05-11T01:00:10;99972.34;;;6.12;100.00
3434;BME280;1730;41.932;25.548;2023-05-11T01:02:36;99977.34;;;6.29;100.00
3434;BME280;1730;41.932;25.548;2023-05-11T01:05:02;100283.78;;;7.88;100.00
3434;BME280;1730;41.932;25.548;2023-05-11T01:11:29;100167.59;;;7.14;100.00
3434;BME280;1730;41.932;25.548;2023-05-11T01:14:06;100231.41;;;7.58;100.00
3434;BME280;1730;41.932;25.548;2023-05-11T01:16:39;100252.59;;;7.74;100.00
3434;BME280;1730;41.932;25.548;2023-05-11T01:19:19;100114.66;;;6.93;100.00
3434;BME280;1730;41.932;25.548;2023-05-11T01:21:49;100254.81;;;7.80;100.00
3434;BME280;1730;41.932;25.548;2023-05-11T01:24:31;100134.88;;;7.09;100.00
3434;BME280;1730;41.932;25.548;2023-05-11T01:32:53;100246.16;;;7.77;100.00
3434;BME280;1730;41.932;25.548;2023-05-11T01:35:22;100277.13;;;7.57;100.00
3434;BME280;1730;41.932;25.548;2023-05-11T01:37:56;100133.34;;;6.82;100.00
3434;BME280;1730;41.932;25.548;2023-05-11T01:40:26;100269.50;;;7.51;100.00
3434;BME280;1730;41.932;25.548;2023-05-11T01:43:08;100257.91;;;7.50;100.00
3434;BME280;1730;41.932;25.548;2023-05-11T01:45:40;100266.47;;;7.32;100.00
3434;BME280;1730;41.932;25.548;2023-05-11T01:48:12;100280.19;;;7.27;100.00
3434;BME280;1730;41.932;25.548;2023-05-11T01:50:38;100308.16;;;7.48;100.00
3434;BME280;1730;41.932;25.548;2023-05-11T01:53:07;100277.56;;;7.51;100.00
3434;BME280;1730;41.932;25.548;2023-05-11T01:55:34;100154.38;;;6.75;100.00
3434;BME280;1730;41.932;25.548;2023-05-11T01:58:03;100251.06;;;7.46;100.00
3434;BME280;1730;41.932;25.548;2023-05-11T02:00:30;99957.28;;;5.60;100.00
3434;BME280;1730;41.932;25.548;2023-05-11T02:02:58;100105.22;;;6.25;100.00
3434;BME280;1730;41.932;25.548;2023-05-11T02:05:26;100264.06;;;7.40;100.00
3434;BME280;1730;41.932;25.548;2023-05-11T02:07:54;100286.03;;;7.57;100.00
3434;BME280;1730;41.932;25.548;2023-05-11T02:10:24;100078.22;;;6.54;100.00
3434;BME280;1730;41.932;25.548;2023-05-11T02:12:51;100235.28;;;7.54;100.00
3434;BME280;1730;41.932;25.548;2023-05-11T02:15:19;100298.16;;;7.87;100.00
3434;BME280;1730;41.932;25.548;2023-05-11T02:17:46;100233.00;;;7.85;100.00
3434;BME280;1730;41.932;25.548;2023-05-11T02:20:12;100032.44;;;6.80;100.00
3434;BME280;1730;41.932;25.548;2023-05-11T02:22:40;100203.69;;;7.82;100.00
3434;BME280;1730;41.932;25.548;2023-05-11T02:25:08;100029.72;;;6.20;100.00
3434;BME280;1730;41.932;25.548;2023-05-11T02:27:34;100232.75;;;7.88;100.00
3434;BME280;1730;41.932;25.548;2023-05-11T02:30:02;99954.78;;;6.68;100.00
3434;BME280;1730;41.932;25.548;2023-05-11T02:32:29;99941.56;;;6.77;100.00
3434;BME280;1730;41.932;25.548;2023-05-11T02:35:05;100152.72;;;8.39;100.00
3434;BME280;1730;41.932;25.548;2023-05-11T02:37:33;100031.66;;;7.96;100.00
3434;BME280;1730;41.932;25.548;2023-05-11T02:40:04;99976.88;;;7.98;100.00
3434;BME280;1730;41.932;25.548;2023-05-11T02:42:35;100099.25;;;8.80;100.00
3434;BME280;1730;41.932;25.548;2023-05-11T02:45:04;99911.31;;;7.67;100.00
3434;BME280;1730;41.932;25.548;2023-05-11T02:47:38;99918.03;;;7.84;100.00
3434;BME280;1730;41.932;25.548;2023-05-11T02:50:07;100092.25;;;8.78;100.00
3434;BME280;1730;41.932;25.548;2023-05-11T02:52:34;99987.13;;;8.38;100.00
3434;BME280;1730;41.932;25.548;2023-05-11T02:55:01;99970.25;;;8.47;100.00
3434;BME280;1730;41.932;25.548;2023-05-11T02:57:29;100080.84;;;9.39;100.00
3434;BME280;1730;41.932;25.548;2023-05-11T02:59:55;99979.78;;;8.94;100.00
3434;BME280;1730;41.932;25.548;2023-05-11T03:02:21;99728.91;;;7.23;100.00
3434;BME280;1730;41.932;25.548;2023-05-11T03:04:46;100102.22;;;9.20;100.00
3434;BME280;1730;41.932;25.548;2023-05-11T03:07:12;99823.19;;;7.95;100.00
3434;BME280;1730;41.932;25.548;2023-05-11T03:09:37;99930.63;;;8.60;100.00
3434;BME280;1730;41.932;25.548;2023-05-11T03:12:03;99703.91;;;7.22;100.00
3434;BME280;1730;41.932;25.548;2023-05-11T03:14:33;99913.97;;;8.34;100.00
3434;BME280;1730;41.932;25.548;2023-05-11T03:17:01;99907.78;;;8.11;100.00
3434;BME280;1730;41.932;25.548;2023-05-11T03:19:27;99762.53;;;7.27;100.00
3434;BME280;1730;41.932;25.548;2023-05-11T03:21:55;100090.72;;;9.18;100.00
3434;BME280;1730;41.932;25.548;2023-05-11T03:24:22;100128.47;;;9.71;100.00
3434;BME280;1730;41.932;25.548;2023-05-11T03:26:49;99835.19;;;8.34;100.00
3434;BME280;1730;41.932;25.548;2023-05-11T03:29:16;100095.53;;;9.78;100.00
3434;BME280;1730;41.932;25.548;2023-05-11T03:31:42;99746.53;;;8.02;100.00
3434;BME280;1730;41.932;25.548;2023-05-11T03:34:07;100078.03;;;10.35;100.00
3434;BME280;1730;41.932;25.548;2023-05-11T03:36:34;99904.59;;;9.85;100.00
3434;BME280;1730;41.932;25.548;2023-05-11T03:39:00;99671.00;;;8.78;100.00
3434;BME280;1730;41.932;25.548;2023-05-11T03:41:26;99859.56;;;10.46;100.00
3434;BME280;1730;41.932;25.548;2023-05-11T03:43:58;99942.22;;;11.14;100.00
3434;BME280;1730;41.932;25.548;2023-05-11T03:46:25;99690.78;;;9.57;100.00
3434;BME280;1730;41.932;25.548;2023-05-11T03:48:51;99933.97;;;11.25;100.00
3434;BME280;1730;41.932;25.548;2023-05-11T03:51:18;99920.72;;;11.51;100.00
3434;BME280;1730;41.932;25.548;2023-05-11T03:53:44;99753.03;;;11.45;100.00
3434;BME280;1730;41.932;25.548;2023-05-11T03:56:10;99848.16;;;12.48;100.00
3434;BME280;1730;41.932;25.548;2023-05-11T03:58:39;99601.19;;;11.68;100.00
3434;BME280;1730;41.932;25.548;2023-05-11T04:01:08;99486.94;;;11.15;100.00
3434;BME280;1730;41.932;25.548;2023-05-11T04:03:35;99661.59;;;12.56;100.00
3434;BME280;1730;41.932;25.548;2023-05-11T04:06:11;99783.59;;;13.32;100.00
3434;BME280;1730;41.932;25.548;2023-05-11T04:08:37;99627.16;;;12.40;100.00
3434;BME280;1730;41.932;25.548;2023-05-11T04:11:02;99646.25;;;12.64;100.00
3434;BME280;1730;41.932;25.548;2023-05-11T04:13:28;99770.50;;;13.61;100.00
3434;BME280;1730;41.932;25.548;2023-05-11T04:15:54;99732.56;;;13.53;100.00
3434;BME280;1730;41.932;25.548;2023-05-11T04:18:20;99747.13;;;14.02;100.00
3434;BME280;1730;41.932;25.548;2023-05-11T04:20:45;99750.28;;;13.81;100.00
3434;BME280;1730;41.932;25.548;2023-05-11T04:23:10;99746.88;;;14.62;100.00
3434;BME280;1730;41.932;25.548;2023-05-11T04:25:36;99753.19;;;13.96;100.00
3434;BME280;1730;41.932;25.548;2023-05-11T04:28:01;99735.88;;;14.55;100.00
3434;BME280;1730;41.932;25.548;2023-05-11T04:30:27;99701.84;;;13.86;100.00
3434;BME280;1730;41.932;25.548;2023-05-11T04:32:53;99745.75;;;13.90;100.00
3434;BME280;1730;41.932;25.548;2023-05-11T04:35:18;99533.25;;;12.25;100.00
3434;BME280;1730;41.932;25.548;2023-05-11T04:37:46;99693.63;;;12.69;100.00
3434;BME280;1730;41.932;25.548;2023-05-11T04:40:12;99524.97;;;11.74;100.00
3434;BME280;1730;41.932;25.548;2023-05-11T04:42:37;99762.00;;;13.90;100.00
3434;BME280;1730;41.932;25.548;2023-05-11T04:45:03;99763.88;;;13.22;100.00
3434;BME280;1730;41.932;25.548;2023-05-11T04:47:28;99569.72;;;11.77;100.00
3434;BME280;1730;41.932;25.548;2023-05-11T04:49:54;99402.22;;;11.08;100.00
3434;BME280;1730;41.932;25.548;2023-05-11T04:52:19;99532.72;;;12.21;100.00
3434;BME280;1730;41.932;25.548;2023-05-11T04:54:45;99774.59;;;13.65;100.00
3434;BME280;1730;41.932;25.548;2023-05-11T04:57:10;99640.66;;;13.18;100.00
3434;BME280;1730;41.932;25.548;2023-05-11T04:59:36;99767.72;;;13.79;100.00
3434;BME280;1730;41.932;25.548;2023-05-11T05:02:01;99756.25;;;14.01;100.00
3434;BME280;1730;41.932;25.548;2023-05-11T05:04:27;99755.97;;;14.20;100.00
3434;BME280;1730;41.932;25.548;2023-05-11T05:06:53;99646.09;;;13.26;100.00
3434;BME280;1730;41.932;25.548;2023-05-11T05:09:18;99667.81;;;14.08;100.00
3434;BME280;1730;41.932;25.548;2023-05-11T05:11:44;99742.81;;;14.41;100.00
3434;BME280;1730;41.932;25.548;2023-05-11T05:14:09;99634.75;;;13.88;100.00
3434;BME280;1730;41.932;25.548;2023-05-11T05:16:35;99642.53;;;13.83;100.00
3434;BME280;1730;41.932;25.548;2023-05-11T05:19:00;99477.31;;;14.06;100.00
3434;BME280;1730;41.932;25.548;2023-05-11T05:21:26;99603.22;;;13.87;100.00
3434;BME280;1730;41.932;25.548;2023-05-11T05:23:52;99414.56;;;13.38;100.00
3434;BME280;1730;41.932;25.548;2023-05-11T05:26:17;99717.53;;;15.45;100.00
3434;BME280;1730;41.932;25.548;2023-05-11T05:28:43;99473.63;;;13.83;100.00
3434;BME280;1730;41.932;25.548;2023-05-11T05:31:08;99719.78;;;15.33;100.00
3434;BME280;1730;41.932;25.548;2023-05-11T05:33:33;99647.47;;;15.24;100.00
3434;BME280;1730;41.932;25.548;2023-05-11T05:35:59;99707.31;;;16.16;100.00
3434;BME280;1730;41.932;25.548;2023-05-11T05:38:25;99589.59;;;15.15;100.00
3434;BME280;1730;41.932;25.548;2023-05-11T05:40:51;99667.81;;;15.98;100.00
3434;BME280;1730;41.932;25.548;2023-05-11T05:43:16;99700.12;;;16.23;100.00
3434;BME280;1730;41.932;25.548;2023-05-11T05:45:42;99699.53;;;16.36;100.00
3434;BME280;1730;41.932;25.548;2023-05-11T05:48:08;99624.59;;;15.80;100.00
3434;BME280;1730;41.932;25.548;2023-05-11T05:50:34;99730.91;;;16.24;100.00
3434;BME280;1730;41.932;25.548;2023-05-11T05:53:00;99714.38;;;16.03;100.00
3434;BME280;1730;41.932;25.548;2023-05-11T05:55:26;99704.59;;;16.16;100.00
3434;BME280;1730;41.932;25.548;2023-05-11T05:57:52;99713.97;;;15.52;100.00
3434;BME280;1730;41.932;25.548;2023-05-11T06:00:18;99730.47;;;16.66;100.00
3434;BME280;1730;41.932;25.548;2023-05-11T06:02:43;99598.28;;;16.41;100.00
3434;BME280;1730;41.932;25.548;2023-05-11T06:05:09;99587.19;;;15.59;100.00
3434;BME280;1730;41.932;25.548;2023-05-11T06:07:35;99572.00;;;16.10;100.00
3434;BME280;1730;41.932;25.548;2023-05-11T06:10:01;99426.25;;;15.41;100.00
3434;BME280;1730;41.932;25.548;2023-05-11T06:12:26;99596.84;;;16.30;100.00
3434;BME280;1730;41.932;25.548;2023-05-11T06:14:52;99736.22;;;16.17;100.00
3434;BME280;1730;41.932;25.548;2023-05-11T06:17:17;99395.91;;;14.22;100.00
3434;BME280;1730;41.932;25.548;2023-05-11T06:19:43;99711.31;;;16.29;100.00
3434;BME280;1730;41.932;25.548;2023-05-11T06:22:08;99696.28;;;15.56;100.00
3434;BME280;1730;41.932;25.548;2023-05-11T06:24:35;99671.16;;;15.46;100.00
3434;BME280;1730;41.932;25.548;2023-05-11T06:27:00;99684.38;;;16.94;100.00
3434;BME280;1730;41.932;25.548;2023-05-11T06:29:27;99693.97;;;17.78;100.00
3434;BME280;1730;41.932;25.548;2023-05-11T06:31:52;99598.38;;;16.85;100.00
3434;BME280;1730;41.932;25.548;2023-05-11T06:34:19;99677.94;;;17.09;100.00
3434;BME280;1730;41.932;25.548;2023-05-11T06:36:45;99609.25;;;16.99;100.00
3434;BME280;1730;41.932;25.548;2023-05-11T06:39:10;99611.63;;;16.13;100.00
3434;BME280;1730;41.932;25.548;2023-05-11T06:41:36;99618.22;;;16.18;100.00
3434;BME280;1730;41.932;25.548;2023-05-11T06:44:01;99712.16;;;16.52;100.00
3434;BME280;1730;41.932;25.548;2023-05-11T06:46:27;99742.09;;;15.67;100.00
3434;BME280;1730;41.932;25.548;2023-05-11T06:48:52;99690.91;;;16.02;100.00
3434;BME280;1730;41.932;25.548;2023-05-11T06:51:18;99710.63;;;16.04;100.00
3434;BME280;1730;41.932;25.548;2023-05-11T06:53:46;99568.16;;;14.42;100.00
3434;BME280;1730;41.932;25.548;2023-05-11T06:56:12;99712.41;;;15.58;100.00
3434;BME280;1730;41.932;25.548;2023-05-11T06:58:37;99715.97;;;15.58;100.00
3434;BME280;1730;41.932;25.548;2023-05-11T07:01:03;99727.75;;;15.82;100.00
3434;BME280;1730;41.932;25.548;2023-05-11T07:03:36;99706.31;;;16.17;100.00
3434;BME280;1730;41.932;25.548;2023-05-11T07:06:06;99694.59;;;16.77;100.00
3434;BME280;1730;41.932;25.548;2023-05-11T07:08:32;99703.91;;;16.45;100.00
3434;BME280;1730;41.932;25.548;2023-05-11T07:10:58;99705.84;;;15.44;100.00
3434;BME280;1730;41.932;25.548;2023-05-11T07:13:23;99705.19;;;16.04;100.00
3434;BME280;1730;41.932;25.548;2023-05-11T07:15:49;99495.06;;;15.11;100.00
3434;BME280;1730;41.932;25.548;2023-05-11T07:18:14;99632.88;;;15.64;100.00
3434;BME280;1730;41.932;25.548;2023-05-11T07:20:41;99705.84;;;15.36;100.00
3434;BME280;1730;41.932;25.548;2023-05-11T07:23:06;99437.41;;;13.11;100.00
3434;BME280;1730;41.932;25.548;2023-05-11T07:25:32;99411.34;;;13.42;100.00
3434;BME280;1730;41.932;25.548;2023-05-11T07:27:58;99713.50;;;15.80;100.00
3434;BME280;1730;41.932;25.548;2023-05-11T07:30:23;99402.84;;;14.25;100.00
3434;BME280;1730;41.932;25.548;2023-05-11T07:32:50;99704.50;;;15.79;100.00
3434;BME280;1730;41.932;25.548;2023-05-11T07:35:16;99709.41;;;15.37;100.00
3434;BME280;1730;41.932;25.548;2023-05-11T07:37:42;99704.50;;;15.79;100.00
3434;BME280;1730;41.932;25.548;2023-05-11T07:40:07;99698.97;;;15.95;100.00
3434;BME280;1730;41.932;25.548;2023-05-11T07:42:33;99686.94;;;16.12;100.00
3434;BME280;1730;41.932;25.548;2023-05-11T07:44:59;99540.69;;;14.37;100.00
3434;BME280;1730;41.932;25.548;2023-05-11T07:47:24;99653.03;;;15.39;100.00
3434;BME280;1730;41.932;25.548;2023-05-11T07:49:50;99688.09;;;16.41;100.00
3434;BME280;1730;41.932;25.548;2023-05-11T07:52:16;99682.94;;;16.68;100.00
3434;BME280;1730;41.932;25.548;2023-05-11T07:54:42;99646.53;;;16.24;100.00
3434;BME280;1730;41.932;25.548;2023-05-11T07:57:08;99456.38;;;15.77;100.00
3434;BME280;1730;41.932;25.548;2023-05-11T07:59:35;99677.22;;;15.64;100.00
3434;BME280;1730;41.932;25.548;2023-05-11T08:02:01;99679.63;;;16.36;100.00
3434;BME280;1730;41.932;25.548;2023-05-11T08:04:27;99553.78;;;15.73;100.00
3434;BME280;1730;41.932;25.548;2023-05-11T08:06:52;99670.56;;;16.66;100.00
3434;BME280;1730;41.932;25.548;2023-05-11T08:09:18;99675.47;;;17.00;100.00
3434;BME280;1730;41.932;25.548;2023-05-11T08:11:43;99669.75;;;16.80;100.00
3434;BME280;1730;41.932;25.548;2023-05-11T08:14:09;99665.53;;;17.22;100.00
3434;BME280;1730;41.932;25.548;2023-05-11T08:16:36;99546.06;;;16.22;100.00
3434;BME280;1730;41.932;25.548;2023-05-11T08:19:01;99661.66;;;16.87;100.00
3434;BME280;1730;41.932;25.548;2023-05-11T08:21:27;99634.47;;;16.64;100.00
3434;BME280;1730;41.932;25.548;2023-05-11T08:23:52;99351.44;;;14.93;100.00
3434;BME280;1730;41.932;25.548;2023-05-11T08:26:18;99660.38;;;16.37;100.00
3434;BME280;1730;41.932;25.548;2023-05-11T08:28:44;99558.44;;;15.88;100.00
3434;BME280;1730;41.932;25.548;2023-05-11T08:31:09;99614.44;;;16.19;100.00
3434;BME280;1730;41.932;25.548;2023-05-11T08:33:35;99521.00;;;16.42;100.00
3434;BME280;1730;41.932;25.548;2023-05-11T08:36:00;99510.00;;;17.08;100.00
3434;BME280;1730;41.932;25.548;2023-05-11T08:38:26;99647.00;;;16.88;100.00
3434;BME280;1730;41.932;25.548;2023-05-11T08:40:52;99643.22;;;17.98;100.00
3434;BME280;1730;41.932;25.548;2023-05-11T08:43:18;99631.91;;;18.65;100.00
3434;BME280;1730;41.932;25.548;2023-05-11T08:45:45;99628.00;;;18.80;100.00
3434;BME280;1730;41.932;25.548;2023-05-11T08:48:14;99636.38;;;17.37;100.00
3434;BME280;1730;41.932;25.548;2023-05-11T08:50:46;99333.44;;;15.67;100.00
3434;BME280;1730;41.932;25.548;2023-05-11T08:53:12;99619.72;;;17.61;100.00
3434;BME280;1730;41.932;25.548;2023-05-11T08:55:38;99630.38;;;17.12;100.00
3434;BME280;1730;41.932;25.548;2023-05-11T08:58:07;99630.56;;;16.96;100.00
3434;BME280;1730;41.932;25.548;2023-05-11T09:00:35;99618.88;;;17.46;100.00
3434;BME280;1730;41.932;25.548;2023-05-11T09:03:03;99593.16;;;16.90;100.00
3434;BME280;1730;41.932;25.548;2023-05-11T09:05:29;99616.34;;;17.59;100.00
3434;BME280;1730;41.932;25.548;2023-05-11T09:07:59;99614.09;;;17.84;100.00
3434;BME280;1730;41.932;25.548;2023-05-11T09:10:26;99616.28;;;17.23;100.00
3434;BME280;1730;41.932;25.548;2023-05-11T09:12:52;99276.84;;;15.18;100.00
3434;BME280;1730;41.932;25.548;2023-05-11T09:15:17;99617.41;;;17.14;100.00
3434;BME280;1730;41.932;25.548;2023-05-11T09:17:43;99606.25;;;17.60;100.00
3434;BME280;1730;41.932;25.548;2023-05-11T09:20:15;99606.34;;;18.30;100.00
3434;BME280;1730;41.932;25.548;2023-05-11T09:22:42;99591.81;;;18.23;100.00
3434;BME280;1730;41.932;25.548;2023-05-11T09:25:11;99602.09;;;18.21;100.00
3434;BME280;1730;41.932;25.548;2023-05-11T09:27:41;99495.38;;;16.95;100.00
3434;BME280;1730;41.932;25.548;2023-05-11T09:30:12;99597.19;;;17.95;100.00
3434;BME280;1730;41.932;25.548;2023-05-11T09:32:54;99595.19;;;18.03;100.00
3434;BME280;1730;41.932;25.548;2023-05-11T09:38:08;99598.97;;;18.24;100.00
3434;BME280;1730;41.932;25.548;2023-05-11T09:40:36;99599.00;;;18.79;100.00
3434;BME280;1730;41.932;25.548;2023-05-11T09:43:23;99597.25;;;19.06;100.00
3434;BME280;1730;41.932;25.548;2023-05-11T09:45:54;99565.25;;;18.94;100.00
3434;BME280;1730;41.932;25.548;2023-05-11T09:50:50;99592.69;;;18.51;100.00
3434;BME280;1730;41.932;25.548;2023-05-11T09:53:16;99459.09;;;17.51;100.00
3434;BME280;1730;41.932;25.548;2023-05-11T09:55:54;99533.63;;;18.78;100.00
3434;BME280;1730;41.932;25.548;2023-05-11T09:58:20;99581.53;;;19.15;100.00
3434;BME280;1730;41.932;25.548;2023-05-11T10:00:50;99548.28;;;18.70;97.52
3434;BME280;1730;41.932;25.548;2023-05-11T10:03:16;99562.28;;;18.33;100.00
3434;BME280;1730;41.932;25.548;2023-05-11T10:05:55;99561.41;;;18.88;100.00
3434;BME280;1730;41.932;25.548;2023-05-11T10:08:27;99559.59;;;19.02;99.50
3434;BME280;1730;41.932;25.548;2023-05-11T10:10:54;99567.84;;;18.74;100.00
3434;BME280;1730;41.932;25.548;2023-05-11T10:13:20;99561.31;;;18.19;100.00
3434;BME280;1730;41.932;25.548;2023-05-11T10:15:52;99559.34;;;18.56;100.00
3434;BME280;1730;41.932;25.548;2023-05-11T10:18:18;99561.91;;;18.64;100.00
3434;BME280;1730;41.932;25.548;2023-05-11T10:20:44;99471.53;;;18.31;100.00
3434;BME280;1730;41.932;25.548;2023-05-11T10:23:10;99543.56;;;18.92;100.00
3434;BME280;1730;41.932;25.548;2023-05-11T10:25:37;99548.84;;;18.94;100.00
3434;BME280;1730;41.932;25.548;2023-05-11T10:28:03;99552.06;;;19.04;99.83
3434;BME280;1730;41.932;25.548;2023-05-11T10:30:29;99540.75;;;18.79;98.52
3434;BME280;1730;41.932;25.548;2023-05-11T10:32:55;99537.25;;;18.91;100.00
3434;BME280;1730;41.932;25.548;2023-05-11T10:35:21;99537.66;;;19.29;94.05
3434;BME280;1730;41.932;25.548;2023-05-11T10:37:49;99537.66;;;18.88;89.46
3434;BME280;1730;41.932;25.548;2023-05-11T10:40:15;99536.34;;;19.19;91.39
3434;BME280;1730;41.932;25.548;2023-05-11T10:59:49;99522.47;;;20.27;85.36
3434;BME280;1730;41.932;25.548;2023-05-11T11:02:17;99525.59;;;20.50;82.80
3434;BME280;1730;41.932;25.548;2023-05-11T11:04:49;99383.03;;;19.40;80.03
3434;BME280;1730;41.932;25.548;2023-05-11T11:07:17;99513.37;;;19.61;85.88
3434;BME280;1730;41.932;25.548;2023-05-11T11:09:57;99516.34;;;19.99;83.84
3434;BME280;1730;41.932;25.548;2023-05-11T11:12:30;99514.22;;;19.94;83.34
3434;BME280;1730;41.932;25.548;2023-05-11T11:15:04;99494.12;;;19.34;85.19
3434;BME280;1730;41.932;25.548;2023-05-11T11:17:32;99420.34;;;19.61;81.56
3434;BME280;1730;41.932;25.548;2023-05-11T11:20:05;99512.31;;;20.01;80.57
3434;BME280;1730;41.932;25.548;2023-05-11T11:28:11;99513.59;;;20.18;76.78
3434;BME280;1730;41.932;25.548;2023-05-11T11:30:37;99413.59;;;19.76;77.75
3434;BME280;1730;41.932;25.548;2023-05-11T11:40:38;99500.34;;;20.22;77.58
3434;BME280;1730;41.932;25.548;2023-05-11T11:46:01;99503.03;;;19.02;86.93
3434;BME280;1730;41.932;25.548;2023-05-11T11:48:37;99443.72;;;18.89;86.70
3434;BME280;1730;41.932;25.548;2023-05-11T11:51:11;99481.47;;;19.20;84.06
3434;BME280;1730;41.932;25.548;2023-05-11T11:56:03;99485.16;;;19.73;79.89
3434;BME280;1730;41.932;25.548;2023-05-11T12:01:07;99481.78;;;20.24;75.07
3434;BME280;1730;41.932;25.548;2023-05-11T12:03:37;99484.53;;;20.11;73.72
3434;BME280;1730;41.932;25.548;2023-05-11T12:06:07;99423.91;;;19.94;72.42
3434;BME280;1730;41.932;25.548;2023-05-11T12:08:34;99422.59;;;20.10;71.18
3434;BME280;1730;41.932;25.548;2023-05-11T12:11:02;99420.09;;;19.49;75.50
3434;BME280;1730;41.932;25.548;2023-05-11T12:13:28;99464.66;;;19.36;83.40
3434;BME280;1730;41.932;25.548;2023-05-11T12:16:26;99450.63;;;19.79;77.92
3434;BME280;1730;41.932;25.548;2023-05-11T12:18:56;99449.38;;;19.75;78.84
3434;BME280;1730;41.932;25.548;2023-05-11T12:21:28;99451.28;;;19.88;78.58
3434;BME280;1730;41.932;25.548;2023-05-11T12:23:55;99448.47;;;19.42;76.22
3434;BME280;1730;41.932;25.548;2023-05-11T12:26:22;99459.66;;;19.47;75.35
3434;BME280;1730;41.932;25.548;2023-05-11T12:28:49;99278.00;;;18.08;77.96
3434;BME280;1730;41.932;25.548;2023-05-11T12:31:16;99453.59;;;19.91;73.74
3434;BME280;1730;41.932;25.548;2023-05-11T12:33:46;99345.84;;;19.46;71.77
3434;BME280;1730;41.932;25.548;2023-05-11T12:36:14;99446.03;;;19.73;75.41
3434;BME280;1730;41.932;25.548;2023-05-11T12:38:47;99434.63;;;19.76;73.59
3434;BME280;1730;41.932;25.548;2023-05-11T12:41:20;99340.03;;;18.75;75.44
3434;BME280;1730;41.932;25.548;2023-05-11T12:43:48;99243.09;;;18.51;77.42
3434;BME280;1730;41.932;25.548;2023-05-11T12:46:16;99423.28;;;19.72;75.60
3434;BME280;1730;41.932;25.548;2023-05-11T12:48:44;99414.37;;;19.37;74.97
3434;BME280;1730;41.932;25.548;2023-05-11T12:51:10;99396.47;;;19.15;82.31
3434;BME280;1730;41.932;25.548;2023-05-11T12:53:38;99152.59;;;17.74;81.00
3434;BME280;1730;41.932;25.548;2023-05-11T12:56:04;99416.13;;;19.71;80.42
3434;BME280;1730;41.932;25.548;2023-05-11T12:58:37;99412.13;;;19.74;76.31
3434;BME280;1730;41.932;25.548;2023-05-11T13:01:04;99459.47;;;19.48;75.62
3434;BME280;1730;41.932;25.548;2023-05-11T13:03:31;99416.13;;;19.78;76.06
3434;BME280;1730;41.932;25.548;2023-05-11T13:06:11;99408.31;;;19.88;74.05
3434;BME280;1730;41.932;25.548;2023-05-11T13:08:44;99406.84;;;19.99;73.37
3434;BME280;1730;41.932;25.548;2023-05-11T13:11:23;99405.13;;;20.17;73.22
3434;BME280;1730;41.932;25.548;2023-05-11T13:13:52;99394.78;;;20.33;71.05
3434;BME280;1730;41.932;25.548;2023-05-11T13:16:29;99196.44;;;18.33;76.84
3434;BME280;1730;41.932;25.548;2023-05-11T13:19:02;99397.09;;;19.11;83.44
3434;BME280;1730;41.932;25.548;2023-05-11T13:21:31;99402.44;;;19.52;81.23
3434;BME280;1730;41.932;25.548;2023-05-11T13:23:58;99408.53;;;19.54;80.83
3434;BME280;1730;41.932;25.548;2023-05-11T13:26:30;99314.87;;;19.06;82.93
3434;BME280;1730;41.932;25.548;2023-05-11T13:28:56;99249.56;;;18.43;77.92
3434;BME280;1730;41.932;25.548;2023-05-11T13:31:21;99286.41;;;18.61;75.66
3434;BME280;1730;41.932;25.548;2023-05-11T13:33:54;99404.53;;;19.50;76.80
3434;BME280;1730;41.932;25.548;2023-05-11T13:36:38;99400.91;;;19.29;76.62
3434;BME280;1730;41.932;25.548;2023-05-11T13:39:04;99396.69;;;19.40;77.93
3434;BME280;1730;41.932;25.548;2023-05-11T13:41:30;99198.56;;;18.51;74.40
3434;BME280;1730;41.932;25.548;2023-05-11T13:43:56;99390.03;;;19.82;75.02
3434;BME280;1730;41.932;25.548;2023-05-11T13:46:25;99395.66;;;20.07;73.16
3434;BME280;1730;41.932;25.548;2023-05-11T13:48:51;99384.31;;;20.03;72.24
3434;BME280;1730;41.932;25.548;2023-05-11T13:51:19;99262.09;;;19.12;72.57
3434;BME280;1730;41.932;25.548;2023-05-11T13:53:45;99398.19;;;19.36;79.62
3434;BME280;1730;41.932;25.548;2023-05-11T13:56:11;99417.72;;;19.26;84.15
3434;BME280;1730;41.932;25.548;2023-05-11T13:58:36;99170.31;;;17.97;85.37
3434;BME280;1730;41.932;25.548;2023-05-11T14:01:02;99395.34;;;18.83;84.79